Terminal Aerodrome Forecast
Issued by NWS Pendleton, OR

Home | Current Version | Previous Version | Text Only | Print | Product List | Glossary On
Versions: 1 2 3 4 5 6 7 8 9 10 11 12 13 14
000
FTUS46 KPDT 242341
TAFPDT
TAF
KPDT 242341Z 2500/2524 34006KT P6SM FEW150
     FM250100 02006KT P6SM SCT120
     FM250400 13007KT P6SM BKN100 BKN200
     FM251100 13006KT P6SM BKN070
     FM251900 35006KT P6SM SKC=

USA.gov is the U.S. government's official web portal to all federal, state and local government web resources and services.